sensor_id;sensor_type;location;lat;lon;timestamp;pressure;altitude;pressure_sealevel;temperature;humidity
7105;BME280;3594;42.152;24.714;2023-03-16T00:01:16;-24062.94;;;8.80;nan
7105;BME280;3594;42.152;24.714;2023-03-16T00:03:42;-24061.53;;;8.75;nan
7105;BME280;3594;42.152;24.714;2023-03-16T00:06:07;-24057.56;;;8.61;nan
7105;BME280;3594;42.152;24.714;2023-03-16T00:08:33;-24054.19;;;8.49;nan
7105;BME280;3594;42.152;24.714;2023-03-16T00:10:59;-24064.09;;;8.84;nan
7105;BME280;3594;42.152;24.714;2023-03-16T00:13:27;-24067.91;;;8.98;nan
7105;BME280;3594;42.152;24.714;2023-03-16T00:15:55;-24060.13;;;8.70;nan
7105;BME280;3594;42.152;24.714;2023-03-16T00:18:23;-24072.72;;;9.15;nan
7105;BME280;3594;42.152;24.714;2023-03-16T00:20:52;-24070.72;;;9.08;nan
7105;BME280;3594;42.152;24.714;2023-03-16T00:23:19;-24071.44;;;9.11;nan
7105;BME280;3594;42.152;24.714;2023-03-16T00:25:52;-24071.72;;;9.12;nan
7105;BME280;3594;42.152;24.714;2023-03-16T00:28:18;-24071.16;;;9.10;nan
7105;BME280;3594;42.152;24.714;2023-03-16T00:30:43;-24073.13;;;9.17;nan
7105;BME280;3594;42.152;24.714;2023-03-16T00:33:11;-24074.84;;;9.23;nan
7105;BME280;3594;42.152;24.714;2023-03-16T00:35:37;-24061.81;;;8.76;nan
7105;BME280;3594;42.152;24.714;2023-03-16T00:38:02;-24072.16;;;9.13;nan
7105;BME280;3594;42.152;24.714;2023-03-16T00:40:28;-24072.44;;;9.14;nan
7105;BME280;3594;42.152;24.714;2023-03-16T00:42:55;-24071.31;;;9.10;nan
7105;BME280;3594;42.152;24.714;2023-03-16T00:45:20;-24076.66;;;9.29;nan
7105;BME280;3594;42.152;24.714;2023-03-16T00:47:48;-24077.09;;;9.31;nan
7105;BME280;3594;42.152;24.714;2023-03-16T00:50:13;-24071.44;;;9.11;nan
7105;BME280;3594;42.152;24.714;2023-03-16T00:52:40;-24074.84;;;9.23;nan
7105;BME280;3594;42.152;24.714;2023-03-16T00:55:06;-24075.69;;;9.26;nan
7105;BME280;3594;42.152;24.714;2023-03-16T00:57:32;-24079.50;;;9.40;nan
7105;BME280;3594;42.152;24.714;2023-03-16T00:59:58;-24076.53;;;9.29;nan
7105;BME280;3594;42.152;24.714;2023-03-16T01:02:24;-24074.84;;;9.23;nan
7105;BME280;3594;42.152;24.714;2023-03-16T01:04:50;-24071.88;;;9.12;nan
7105;BME280;3594;42.152;24.714;2023-03-16T01:07:16;-24072.84;;;9.16;nan
7105;BME280;3594;42.152;24.714;2023-03-16T01:09:42;-24081.47;;;9.47;nan
7105;BME280;3594;42.152;24.714;2023-03-16T01:12:13;-24072.56;;;9.15;nan
7105;BME280;3594;42.152;24.714;2023-03-16T01:14:39;-24071.16;;;9.10;nan
7105;BME280;3594;42.152;24.714;2023-03-16T01:17:06;-24080.63;;;9.44;nan
7105;BME280;3594;42.152;24.714;2023-03-16T01:19:33;-24083.47;;;9.54;nan
7105;BME280;3594;42.152;24.714;2023-03-16T01:22:00;-24079.22;;;9.39;nan
7105;BME280;3594;42.152;24.714;2023-03-16T01:24:26;-24082.91;;;9.52;nan
7105;BME280;3594;42.152;24.714;2023-03-16T01:26:52;-24077.81;;;9.34;nan
7105;BME280;3594;42.152;24.714;2023-03-16T01:29:18;-24067.75;;;8.98;nan
7105;BME280;3594;42.152;24.714;2023-03-16T01:31:43;-24075.69;;;9.26;nan
7105;BME280;3594;42.152;24.714;2023-03-16T01:34:09;-24071.44;;;9.11;nan
7105;BME280;3594;42.152;24.714;2023-03-16T01:36:41;-24071.31;;;9.10;nan
7105;BME280;3594;42.152;24.714;2023-03-16T01:39:06;-24062.38;;;8.78;nan
7105;BME280;3594;42.152;24.714;2023-03-16T01:41:31;-24060.84;;;8.73;nan
7105;BME280;3594;42.152;24.714;2023-03-16T01:43:57;-24069.31;;;9.03;nan
7105;BME280;3594;42.152;24.714;2023-03-16T01:46:26;-24066.91;;;8.95;nan
7105;BME280;3594;42.152;24.714;2023-03-16T01:49:08;-24067.19;;;8.96;nan
7105;BME280;3594;42.152;24.714;2023-03-16T01:51:47;-24063.25;;;8.81;nan
7105;BME280;3594;42.152;24.714;2023-03-16T01:56:57;-24040.88;;;8.02;nan
7105;BME280;3594;42.152;24.714;2023-03-16T01:59:29;-24055.03;;;8.52;nan
7105;BME280;3594;42.152;24.714;2023-03-16T02:01:55;-24046.97;;;8.23;nan
7105;BME280;3594;42.152;24.714;2023-03-16T02:04:47;-24056.31;;;8.57;nan
7105;BME280;3594;42.152;24.714;2023-03-16T02:07:14;-24041.72;;;8.05;nan
7105;BME280;3594;42.152;24.714;2023-03-16T02:09:43;-24042.56;;;8.08;nan
7105;BME280;3594;42.152;24.714;2023-03-16T02:12:14;-24042.72;;;8.08;nan
7105;BME280;3594;42.152;24.714;2023-03-16T02:14:47;-24050.22;;;8.35;nan
7105;BME280;3594;42.152;24.714;2023-03-16T02:17:15;-24044.13;;;8.13;nan
7105;BME280;3594;42.152;24.714;2023-03-16T02:22:43;-24052.47;;;8.43;nan
7105;BME280;3594;42.152;24.714;2023-03-16T02:25:10;-24048.50;;;8.29;nan
7105;BME280;3594;42.152;24.714;2023-03-16T02:30:21;-24037.03;;;7.88;nan
7105;BME280;3594;42.152;24.714;2023-03-16T02:32:48;-24049.22;;;8.31;nan
7105;BME280;3594;42.152;24.714;2023-03-16T02:35:16;-24053.47;;;8.47;nan
7105;BME280;3594;42.152;24.714;2023-03-16T02:37:41;-24041.56;;;8.04;nan
7105;BME280;3594;42.152;24.714;2023-03-16T02:40:20;-24051.22;;;8.38;nan
7105;BME280;3594;42.152;24.714;2023-03-16T02:43:12;-24048.81;;;8.30;nan
7105;BME280;3594;42.152;24.714;2023-03-16T02:45:42;-24039.44;;;7.96;nan
7105;BME280;3594;42.152;24.714;2023-03-16T02:48:26;-24047.94;;;8.27;nan
7105;BME280;3594;42.152;24.714;2023-03-16T02:50:53;-24048.94;;;8.30;nan
7105;BME280;3594;42.152;24.714;2023-03-16T02:53:19;-24044.28;;;8.14;nan
7105;BME280;3594;42.152;24.714;2023-03-16T02:55:45;-24044.28;;;8.14;nan
7105;BME280;3594;42.152;24.714;2023-03-16T02:58:12;-24039.72;;;7.97;nan
7105;BME280;3594;42.152;24.714;2023-03-16T03:00:37;-24038.75;;;7.94;nan
7105;BME280;3594;42.152;24.714;2023-03-16T03:03:05;-24038.31;;;7.92;nan
7105;BME280;3594;42.152;24.714;2023-03-16T03:05:32;-24029.81;;;7.62;nan
7105;BME280;3594;42.152;24.714;2023-03-16T03:07:58;-24033.06;;;7.74;nan
7105;BME280;3594;42.152;24.714;2023-03-16T03:10:23;-24036.06;;;7.84;nan
7105;BME280;3594;42.152;24.714;2023-03-16T03:12:49;-24020.88;;;7.30;nan
7105;BME280;3594;42.152;24.714;2023-03-16T03:15:15;-24026.28;;;7.49;nan
7105;BME280;3594;42.152;24.714;2023-03-16T03:17:41;-24031.09;;;7.67;nan
7105;BME280;3594;42.152;24.714;2023-03-16T03:20:08;-24029.53;;;7.61;nan
7105;BME280;3594;42.152;24.714;2023-03-16T03:22:42;-24029.97;;;7.63;nan
7105;BME280;3594;42.152;24.714;2023-03-16T03:25:13;-24018.47;;;7.22;nan
7105;BME280;3594;42.152;24.714;2023-03-16T03:27:40;-24025.00;;;7.45;nan
7105;BME280;3594;42.152;24.714;2023-03-16T03:30:09;-24027.13;;;7.52;nan
7105;BME280;3594;42.152;24.714;2023-03-16T03:32:34;-24017.19;;;7.17;nan
7105;BME280;3594;42.152;24.714;2023-03-16T03:35:00;-24017.91;;;7.20;nan
7105;BME280;3594;42.152;24.714;2023-03-16T03:37:25;-24028.25;;;7.57;nan
7105;BME280;3594;42.152;24.714;2023-03-16T03:39:51;-24026.69;;;7.51;nan
7105;BME280;3594;42.152;24.714;2023-03-16T03:42:17;-24026.97;;;7.52;nan
7105;BME280;3594;42.152;24.714;2023-03-16T03:44:43;-24013.09;;;7.02;nan
7105;BME280;3594;42.152;24.714;2023-03-16T03:47:08;-24021.03;;;7.31;nan
7105;BME280;3594;42.152;24.714;2023-03-16T03:49:34;-24021.88;;;7.34;nan
7105;BME280;3594;42.152;24.714;2023-03-16T03:51:59;-24025.00;;;7.45;nan
7105;BME280;3594;42.152;24.714;2023-03-16T03:54:28;-24020.19;;;7.28;nan
7105;BME280;3594;42.152;24.714;2023-03-16T03:56:54;-24023.00;;;7.38;nan
7105;BME280;3594;42.152;24.714;2023-03-16T03:59:19;-24009.69;;;6.90;nan
7105;BME280;3594;42.152;24.714;2023-03-16T04:01:45;-24011.09;;;6.95;nan
7105;BME280;3594;42.152;24.714;2023-03-16T04:04:10;-24019.75;;;7.26;nan
7105;BME280;3594;42.152;24.714;2023-03-16T04:06:36;-24015.06;;;7.09;nan
7105;BME280;3594;42.152;24.714;2023-03-16T04:09:01;-24014.09;;;7.06;nan
7105;BME280;3594;42.152;24.714;2023-03-16T04:11:26;-24015.06;;;7.09;nan
7105;BME280;3594;42.152;24.714;2023-03-16T04:13:52;-24013.94;;;7.05;nan
7105;BME280;3594;42.152;24.714;2023-03-16T04:16:18;-24010.97;;;6.95;nan
7105;BME280;3594;42.152;24.714;2023-03-16T04:18:43;-24008.13;;;6.85;nan
7105;BME280;3594;42.152;24.714;2023-03-16T04:21:15;-24013.22;;;7.03;nan
7105;BME280;3594;42.152;24.714;2023-03-16T04:23:42;-24012.94;;;7.02;nan
7105;BME280;3594;42.152;24.714;2023-03-16T04:26:07;-24006.56;;;6.79;nan
7105;BME280;3594;42.152;24.714;2023-03-16T04:28:33;-24007.69;;;6.83;nan
7105;BME280;3594;42.152;24.714;2023-03-16T04:31:03;-24000.19;;;6.56;nan
7105;BME280;3594;42.152;24.714;2023-03-16T04:33:29;-24007.13;;;6.81;nan
7105;BME280;3594;42.152;24.714;2023-03-16T04:35:56;-24005.16;;;6.74;nan
7105;BME280;3594;42.152;24.714;2023-03-16T04:38:22;-24004.44;;;6.72;nan
7105;BME280;3594;42.152;24.714;2023-03-16T04:40:47;-24006.56;;;6.79;nan
7105;BME280;3594;42.152;24.714;2023-03-16T04:43:13;-24007.13;;;6.81;nan
7105;BME280;3594;42.152;24.714;2023-03-16T04:45:38;-23994.66;;;6.37;nan
7105;BME280;3594;42.152;24.714;2023-03-16T04:48:04;-24004.88;;;6.73;nan
7105;BME280;3594;42.152;24.714;2023-03-16T04:50:30;-23997.63;;;6.47;nan
7105;BME280;3594;42.152;24.714;2023-03-16T04:52:55;-24008.41;;;6.86;nan
7105;BME280;3594;42.152;24.714;2023-03-16T04:55:21;-24006.00;;;6.77;nan
7105;BME280;3594;42.152;24.714;2023-03-16T04:57:47;-24001.88;;;6.62;nan
7105;BME280;3594;42.152;24.714;2023-03-16T05:00:13;-24004.72;;;6.73;nan
7105;BME280;3594;42.152;24.714;2023-03-16T05:02:46;-24001.19;;;6.60;nan
7105;BME280;3594;42.152;24.714;2023-03-16T05:05:12;-24001.03;;;6.59;nan
7105;BME280;3594;42.152;24.714;2023-03-16T05:07:40;-24007.28;;;6.82;nan
7105;BME280;3594;42.152;24.714;2023-03-16T05:10:10;-24002.16;;;6.63;nan
7105;BME280;3594;42.152;24.714;2023-03-16T05:12:37;-24008.41;;;6.86;nan
7105;BME280;3594;42.152;24.714;2023-03-16T05:15:04;-24007.69;;;6.83;nan
7105;BME280;3594;42.152;24.714;2023-03-16T05:17:30;-23996.78;;;6.44;nan
7105;BME280;3594;42.152;24.714;2023-03-16T05:19:55;-24004.88;;;6.73;nan
7105;BME280;3594;42.152;24.714;2023-03-16T05:22:21;-24009.69;;;6.90;nan
7105;BME280;3594;42.152;24.714;2023-03-16T05:24:46;-24001.03;;;6.59;nan
7105;BME280;3594;42.152;24.714;2023-03-16T05:27:11;-24000.75;;;6.58;nan
7105;BME280;3594;42.152;24.714;2023-03-16T05:29:37;-24008.41;;;6.86;nan
7105;BME280;3594;42.152;24.714;2023-03-16T05:32:02;-24002.88;;;6.66;nan
7105;BME280;3594;42.152;24.714;2023-03-16T05:34:28;-24004.00;;;6.70;nan
7105;BME280;3594;42.152;24.714;2023-03-16T05:36:53;-24001.88;;;6.62;nan
7105;BME280;3594;42.152;24.714;2023-03-16T05:39:19;-23995.78;;;6.41;nan
7105;BME280;3594;42.152;24.714;2023-03-16T05:41:44;-23997.34;;;6.46;nan
7105;BME280;3594;42.152;24.714;2023-03-16T05:44:10;-23997.19;;;6.46;nan
7105;BME280;3594;42.152;24.714;2023-03-16T05:46:36;-24008.00;;;6.84;nan
7105;BME280;3594;42.152;24.714;2023-03-16T05:49:02;-24005.00;;;6.74;nan
7105;BME280;3594;42.152;24.714;2023-03-16T05:51:28;-23999.91;;;6.55;nan
7105;BME280;3594;42.152;24.714;2023-03-16T05:53:53;-23999.47;;;6.54;nan
7105;BME280;3594;42.152;24.714;2023-03-16T05:56:26;-24000.03;;;6.56;nan
7105;BME280;3594;42.152;24.714;2023-03-16T05:58:54;-24004.44;;;6.72;nan
7105;BME280;3594;42.152;24.714;2023-03-16T06:01:21;-24010.41;;;6.93;nan
7105;BME280;3594;42.152;24.714;2023-03-16T06:03:48;-24009.69;;;6.90;nan
7105;BME280;3594;42.152;24.714;2023-03-16T06:06:18;-24005.28;;;6.75;nan
7105;BME280;3594;42.152;24.714;2023-03-16T06:08:44;-24000.75;;;6.58;nan
7105;BME280;3594;42.152;24.714;2023-03-16T06:11:10;-24006.13;;;6.78;nan
7105;BME280;3594;42.152;24.714;2023-03-16T06:13:36;-23996.91;;;6.45;nan
7105;BME280;3594;42.152;24.714;2023-03-16T06:16:02;-24009.97;;;6.91;nan
7105;BME280;3594;42.152;24.714;2023-03-16T06:18:27;-24001.59;;;6.61;nan
7105;BME280;3594;42.152;24.714;2023-03-16T06:20:53;-24009.41;;;6.89;nan
7105;BME280;3594;42.152;24.714;2023-03-16T06:23:18;-23998.34;;;6.50;nan
7105;BME280;3594;42.152;24.714;2023-03-16T06:25:46;-24006.84;;;6.80;nan
7105;BME280;3594;42.152;24.714;2023-03-16T06:28:12;-23998.75;;;6.51;nan
7105;BME280;3594;42.152;24.714;2023-03-16T06:30:39;-24007.84;;;6.84;nan
7105;BME280;3594;42.152;24.714;2023-03-16T06:33:05;-23997.19;;;6.46;nan
7105;BME280;3594;42.152;24.714;2023-03-16T06:35:30;-24003.44;;;6.68;nan
7105;BME280;3594;42.152;24.714;2023-03-16T06:37:56;-24010.81;;;6.94;nan
7105;BME280;3594;42.152;24.714;2023-03-16T06:40:21;-24005.44;;;6.75;nan
7105;BME280;3594;42.152;24.714;2023-03-16T06:42:47;-24007.69;;;6.83;nan
7105;BME280;3594;42.152;24.714;2023-03-16T06:45:12;-24007.00;;;6.81;nan
7105;BME280;3594;42.152;24.714;2023-03-16T06:47:37;-24001.31;;;6.60;nan
7105;BME280;3594;42.152;24.714;2023-03-16T06:50:03;-24000.75;;;6.58;nan
7105;BME280;3594;42.152;24.714;2023-03-16T06:52:29;-24002.88;;;6.66;nan
7105;BME280;3594;42.152;24.714;2023-03-16T06:54:55;-24007.84;;;6.84;nan
7105;BME280;3594;42.152;24.714;2023-03-16T06:57:23;-24007.69;;;6.83;nan
7105;BME280;3594;42.152;24.714;2023-03-16T06:59:48;-24014.50;;;7.07;nan
7105;BME280;3594;42.152;24.714;2023-03-16T07:02:16;-24018.34;;;7.21;nan
7105;BME280;3594;42.152;24.714;2023-03-16T07:04:44;-24016.22;;;7.14;nan
7105;BME280;3594;42.152;24.714;2023-03-16T07:07:10;-24014.94;;;7.09;nan
7105;BME280;3594;42.152;24.714;2023-03-16T07:09:36;-24010.13;;;6.92;nan
7105;BME280;3594;42.152;24.714;2023-03-16T07:12:02;-24014.94;;;7.09;nan
7105;BME280;3594;42.152;24.714;2023-03-16T07:14:28;-24008.56;;;6.86;nan
7105;BME280;3594;42.152;24.714;2023-03-16T07:16:54;-24013.94;;;7.05;nan
7105;BME280;3594;42.152;24.714;2023-03-16T07:19:20;-24008.56;;;6.86;nan
7105;BME280;3594;42.152;24.714;2023-03-16T07:21:47;-24011.94;;;6.98;nan
7105;BME280;3594;42.152;24.714;2023-03-16T07:24:13;-24010.69;;;6.94;nan
7105;BME280;3594;42.152;24.714;2023-03-16T07:26:40;-24014.78;;;7.08;nan
7105;BME280;3594;42.152;24.714;2023-03-16T07:29:05;-24012.66;;;7.01;nan
7105;BME280;3594;42.152;24.714;2023-03-16T07:31:32;-24016.22;;;7.14;nan
7105;BME280;3594;42.152;24.714;2023-03-16T07:33:57;-24023.31;;;7.39;nan
7105;BME280;3594;42.152;24.714;2023-03-16T07:36:24;-24012.81;;;7.01;nan
7105;BME280;3594;42.152;24.714;2023-03-16T07:38:49;-24025.28;;;7.46;nan
7105;BME280;3594;42.152;24.714;2023-03-16T07:41:16;-24023.72;;;7.40;nan
7105;BME280;3594;42.152;24.714;2023-03-16T07:43:41;-24018.91;;;7.23;nan
7105;BME280;3594;42.152;24.714;2023-03-16T07:46:11;-24007.28;;;6.82;nan
7105;BME280;3594;42.152;24.714;2023-03-16T07:48:41;-24019.91;;;7.27;nan
7105;BME280;3594;42.152;24.714;2023-03-16T07:51:08;-24019.91;;;7.27;nan
7105;BME280;3594;42.152;24.714;2023-03-16T07:53:33;-24023.44;;;7.39;nan
7105;BME280;3594;42.152;24.714;2023-03-16T07:55:59;-24030.25;;;7.64;nan
7105;BME280;3594;42.152;24.714;2023-03-16T07:58:25;-24035.34;;;7.82;nan
7105;BME280;3594;42.152;24.714;2023-03-16T08:00:51;-24032.66;;;7.72;nan
7105;BME280;3594;42.152;24.714;2023-03-16T08:03:16;-24034.50;;;7.79;nan
7105;BME280;3594;42.152;24.714;2023-03-16T08:05:42;-24039.16;;;7.95;nan
7105;BME280;3594;42.152;24.714;2023-03-16T08:08:07;-24042.56;;;8.08;nan
7105;BME280;3594;42.152;24.714;2023-03-16T08:10:34;-24044.00;;;8.13;nan
7105;BME280;3594;42.152;24.714;2023-03-16T08:13:01;-24046.53;;;8.22;nan
7105;BME280;3594;42.152;24.714;2023-03-16T08:15:29;-24038.59;;;7.93;nan
7105;BME280;3594;42.152;24.714;2023-03-16T08:17:58;-24040.88;;;8.02;nan
7105;BME280;3594;42.152;24.714;2023-03-16T08:20:24;-24048.66;;;8.29;nan
7105;BME280;3594;42.152;24.714;2023-03-16T08:22:49;-24059.84;;;8.69;nan
7105;BME280;3594;42.152;24.714;2023-03-16T08:25:15;-24054.88;;;8.52;nan
7105;BME280;3594;42.152;24.714;2023-03-16T08:27:41;-24049.38;;;8.32;nan
7105;BME280;3594;42.152;24.714;2023-03-16T08:30:08;-24060.41;;;8.71;nan
7105;BME280;3594;42.152;24.714;2023-03-16T08:32:36;-24062.81;;;8.80;nan
7105;BME280;3594;42.152;24.714;2023-03-16T08:35:04;-24061.53;;;8.75;nan
7105;BME280;3594;42.152;24.714;2023-03-16T08:37:30;-24053.06;;;8.45;nan
7105;BME280;3594;42.152;24.714;2023-03-16T08:39:56;-24055.88;;;8.55;nan
7105;BME280;3594;42.152;24.714;2023-03-16T08:42:24;-24065.22;;;8.88;nan
7105;BME280;3594;42.152;24.714;2023-03-16T08:44:50;-24064.22;;;8.85;nan
7105;BME280;3594;42.152;24.714;2023-03-16T08:47:20;-24062.09;;;8.77;nan
7105;BME280;3594;42.152;24.714;2023-03-16T08:49:45;-24066.06;;;8.92;nan
7105;BME280;3594;42.152;24.714;2023-03-16T08:52:11;-24067.06;;;8.95;nan
7105;BME280;3594;42.152;24.714;2023-03-16T08:54:37;-24075.81;;;9.26;nan
7105;BME280;3594;42.152;24.714;2023-03-16T08:57:03;-24073.41;;;9.18;nan
7105;BME280;3594;42.152;24.714;2023-03-16T08:59:29;-24082.47;;;9.50;nan
7105;BME280;3594;42.152;24.714;2023-03-16T09:01:54;-24082.91;;;9.52;nan
7105;BME280;3594;42.152;24.714;2023-03-16T09:04:20;-24091.38;;;9.82;nan
7105;BME280;3594;42.152;24.714;2023-03-16T09:06:46;-24097.72;;;10.05;nan
7105;BME280;3594;42.152;24.714;2023-03-16T09:09:12;-24093.91;;;9.91;nan
7105;BME280;3594;42.152;24.714;2023-03-16T09:11:37;-24094.06;;;9.92;nan
7105;BME280;3594;42.152;24.714;2023-03-16T09:14:02;-24084.59;;;9.58;nan
7105;BME280;3594;42.152;24.714;2023-03-16T09:16:28;-24087.13;;;9.67;nan
7105;BME280;3594;42.152;24.714;2023-03-16T09:18:55;-24097.03;;;10.02;nan
7105;BME280;3594;42.152;24.714;2023-03-16T09:21:21;-24104.50;;;10.29;nan
7105;BME280;3594;42.152;24.714;2023-03-16T09:23:47;-24113.69;;;10.62;nan
7105;BME280;3594;42.152;24.714;2023-03-16T09:26:13;-24110.56;;;10.51;nan
7105;BME280;3594;42.152;24.714;2023-03-16T09:28:40;-24116.22;;;10.71;nan
7105;BME280;3594;42.152;24.714;2023-03-16T09:31:07;-24116.91;;;10.74;nan
7105;BME280;3594;42.152;24.714;2023-03-16T09:33:34;-24112.56;;;10.58;nan
7105;BME280;3594;42.152;24.714;2023-03-16T09:36:00;-24113.41;;;10.61;nan
7105;BME280;3594;42.152;24.714;2023-03-16T09:38:27;-24111.41;;;10.54;nan
7105;BME280;3594;42.152;24.714;2023-03-16T09:41:08;-24116.50;;;10.72;nan
7105;BME280;3594;42.152;24.714;2023-03-16T09:46:31;-24115.94;;;10.70;nan
7105;BME280;3594;42.152;24.714;2023-03-16T09:49:00;-24112.56;;;10.58;nan
7105;BME280;3594;42.152;24.714;2023-03-16T09:54:39;-24136.50;;;11.44;nan
7105;BME280;3594;42.152;24.714;2023-03-16T09:59:50;-24123.00;;;10.95;nan
7105;BME280;3594;42.152;24.714;2023-03-16T10:10:30;-24131.16;;;11.25;nan
7105;BME280;3594;42.152;24.714;2023-03-16T10:12:59;-24124.25;;;11.00;nan
7105;BME280;3594;42.152;24.714;2023-03-16T10:15:28;-24126.66;;;11.08;nan
7105;BME280;3594;42.152;24.714;2023-03-16T10:18:10;-24127.22;;;11.11;nan
7105;BME280;3594;42.152;24.714;2023-03-16T10:20:39;-24124.41;;;11.00;nan
7105;BME280;3594;42.152;24.714;2023-03-16T10:23:23;-24126.50;;;11.08;nan
7105;BME280;3594;42.152;24.714;2023-03-16T10:25:53;-24126.78;;;11.09;nan
7105;BME280;3594;42.152;24.714;2023-03-16T10:28:21;-24137.22;;;11.46;nan
7105;BME280;3594;42.152;24.714;2023-03-16T10:30:48;-24130.31;;;11.22;nan
7105;BME280;3594;42.152;24.714;2023-03-16T10:33:25;-24124.53;;;11.01;nan
7105;BME280;3594;42.152;24.714;2023-03-16T10:38:49;-24137.22;;;11.46;nan
7105;BME280;3594;42.152;24.714;2023-03-16T10:44:14;-24142.00;;;11.64;nan
7105;BME280;3594;42.152;24.714;2023-03-16T10:46:45;-24143.00;;;11.67;nan
7105;BME280;3594;42.152;24.714;2023-03-16T10:49:26;-24136.94;;;11.45;nan
7105;BME280;3594;42.152;24.714;2023-03-16T10:51:54;-24130.31;;;11.22;nan
7105;BME280;3594;42.152;24.714;2023-03-16T10:54:56;-24142.84;;;11.67;nan
7105;BME280;3594;42.152;24.714;2023-03-16T10:57:30;-24132.28;;;11.29;nan
7105;BME280;3594;42.152;24.714;2023-03-16T11:00:13;-24120.59;;;10.87;nan
7105;BME280;3594;42.152;24.714;2023-03-16T11:02:41;-24135.25;;;11.39;nan
7105;BME280;3594;42.152;24.714;2023-03-16T11:05:18;-24127.91;;;11.13;nan
7105;BME280;3594;42.152;24.714;2023-03-16T11:10:34;-24124.25;;;11.00;nan
7105;BME280;3594;42.152;24.714;2023-03-16T11:13:12;-24126.38;;;11.07;nan
7105;BME280;3594;42.152;24.714;2023-03-16T11:15:45;-24126.22;;;11.07;nan
7105;BME280;3594;42.152;24.714;2023-03-16T11:18:27;-24125.38;;;11.04;nan
7105;BME280;3594;42.152;24.714;2023-03-16T11:20:55;-24124.81;;;11.02;nan
7105;BME280;3594;42.152;24.714;2023-03-16T11:23:29;-24126.22;;;11.07;nan
7105;BME280;3594;42.152;24.714;2023-03-16T11:25:58;-24126.66;;;11.08;nan
7105;BME280;3594;42.152;24.714;2023-03-16T11:28:35;-24124.25;;;11.00;nan
7105;BME280;3594;42.152;24.714;2023-03-16T11:31:27;-24126.78;;;11.09;nan
7105;BME280;3594;42.152;24.714;2023-03-16T11:33:57;-24141.72;;;11.63;nan
7105;BME280;3594;42.152;24.714;2023-03-16T12:00:50;-24147.09;;;11.82;nan
7105;BME280;3594;42.152;24.714;2023-03-16T12:14:29;-24133.84;;;11.34;nan
7105;BME280;3594;42.152;24.714;2023-03-16T12:22:28;-24138.50;;;11.51;nan
7105;BME280;3594;42.152;24.714;2023-03-16T12:24:57;-24145.69;;;11.77;nan
7105;BME280;3594;42.152;24.714;2023-03-16T12:27:30;-24145.41;;;11.76;nan
7105;BME280;3594;42.152;24.714;2023-03-16T12:35:26;-24148.50;;;11.87;nan
7105;BME280;3594;42.152;24.714;2023-03-16T12:37:59;-24160.31;;;12.29;nan
7105;BME280;3594;42.152;24.714;2023-03-16T12:40:53;-24149.91;;;11.92;nan
7105;BME280;3594;42.152;24.714;2023-03-16T12:46:34;-24137.22;;;11.46;nan
7105;BME280;3594;42.152;24.714;2023-03-16T12:49:04;-24128.34;;;11.15;nan
7105;BME280;3594;42.152;24.714;2023-03-16T12:51:35;-24136.66;;;11.44;nan
7105;BME280;3594;42.152;24.714;2023-03-16T12:54:01;-24135.66;;;11.41;nan
7105;BME280;3594;42.152;24.714;2023-03-16T12:56:31;-24128.19;;;11.14;nan
7105;BME280;3594;42.152;24.714;2023-03-16T12:59:02;-24136.81;;;11.45;nan
7105;BME280;3594;42.152;24.714;2023-03-16T13:01:49;-24131.59;;;11.26;nan
7105;BME280;3594;42.152;24.714;2023-03-16T13:04:21;-24131.16;;;11.25;nan
7105;BME280;3594;42.152;24.714;2023-03-16T13:07:03;-24123.25;;;10.96;nan
7105;BME280;3594;42.152;24.714;2023-03-16T13:09:30;-24132.00;;;11.28;nan
7105;BME280;3594;42.152;24.714;2023-03-16T13:11:59;-24135.38;;;11.40;nan
7105;BME280;3594;42.152;24.714;2023-03-16T13:14:40;-24120.16;;;10.85;nan
7105;BME280;3594;42.152;24.714;2023-03-16T13:19:42;-24128.75;;;11.16;nan
7105;BME280;3594;42.152;24.714;2023-03-16T13:22:24;-24129.88;;;11.20;nan
7105;BME280;3594;42.152;24.714;2023-03-16T13:27:43;-24110.72;;;10.51;nan
7105;BME280;3594;42.152;24.714;2023-03-16T13:32:47;-24114.53;;;10.65;nan
7105;BME280;3594;42.152;24.714;2023-03-16T13:35:14;-24115.50;;;10.69;nan
7105;BME280;3594;42.152;24.714;2023-03-16T13:37:42;-24106.06;;;10.35;nan
7105;BME280;3594;42.152;24.714;2023-03-16T13:40:19;-24105.91;;;10.34;nan
7105;BME280;3594;42.152;24.714;2023-03-16T13:42:49;-24108.03;;;10.42;nan
7105;BME280;3594;42.152;24.714;2023-03-16T13:45:23;-24106.47;;;10.36;nan
7105;BME280;3594;42.152;24.714;2023-03-16T13:47:52;-24103.66;;;10.26;nan
7105;BME280;3594;42.152;24.714;2023-03-16T13:50:18;-24099.84;;;10.12;nan
7105;BME280;3594;42.152;24.714;2023-03-16T13:53:09;-24101.97;;;10.20;nan
7105;BME280;3594;42.152;24.714;2023-03-16T13:55:38;-24095.19;;;9.96;nan
7105;BME280;3594;42.152;24.714;2023-03-16T13:58:04;-24086.84;;;9.66;nan
7105;BME280;3594;42.152;24.714;2023-03-16T14:00:33;-24086.97;;;9.66;nan
7105;BME280;3594;42.152;24.714;2023-03-16T14:03:10;-24087.56;;;9.68;nan
7105;BME280;3594;42.152;24.714;2023-03-16T14:05:38;-24083.16;;;9.53;nan
7105;BME280;3594;42.152;24.714;2023-03-16T14:08:14;-24079.78;;;9.41;nan
7105;BME280;3594;42.152;24.714;2023-03-16T14:10:42;-24081.19;;;9.46;nan
7105;BME280;3594;42.152;24.714;2023-03-16T14:13:30;-24081.91;;;9.48;nan
7105;BME280;3594;42.152;24.714;2023-03-16T14:16:16;-24080.34;;;9.43;nan
7105;BME280;3594;42.152;24.714;2023-03-16T14:18:47;-24075.41;;;9.25;nan
7105;BME280;3594;42.152;24.714;2023-03-16T14:21:27;-24071.44;;;9.11;nan
7105;BME280;3594;42.152;24.714;2023-03-16T14:23:58;-24073.72;;;9.19;nan
7105;BME280;3594;42.152;24.714;2023-03-16T14:26:26;-24074.56;;;9.22;nan
7105;BME280;3594;42.152;24.714;2023-03-16T14:29:05;-24064.66;;;8.86;nan
7105;BME280;3594;42.152;24.714;2023-03-16T14:31:38;-24070.59;;;9.08;nan
7105;BME280;3594;42.152;24.714;2023-03-16T14:34:35;-24069.03;;;9.02;nan
7105;BME280;3594;42.152;24.714;2023-03-16T14:37:07;-24055.31;;;8.53;nan
7105;BME280;3594;42.152;24.714;2023-03-16T14:39:33;-24061.25;;;8.74;nan
7105;BME280;3594;42.152;24.714;2023-03-16T14:42:02;-24064.78;;;8.87;nan
7105;BME280;3594;42.152;24.714;2023-03-16T14:44:31;-24059.41;;;8.68;nan
7105;BME280;3594;42.152;24.714;2023-03-16T14:46:59;-24060.69;;;8.72;nan
7105;BME280;3594;42.152;24.714;2023-03-16T14:51:53;-24048.22;;;8.28;nan
7105;BME280;3594;42.152;24.714;2023-03-16T14:54:21;-24049.38;;;8.32;nan
7105;BME280;3594;42.152;24.714;2023-03-16T14:56:51;-24059.41;;;8.68;nan
7105;BME280;3594;42.152;24.714;2023-03-16T14:59:17;-24054.31;;;8.50;nan
7105;BME280;3594;42.152;24.714;2023-03-16T15:01:44;-24054.31;;;8.50;nan
7105;BME280;3594;42.152;24.714;2023-03-16T15:04:31;-24056.59;;;8.58;nan
7105;BME280;3594;42.152;24.714;2023-03-16T15:06:57;-24047.94;;;8.27;nan
7105;BME280;3594;42.152;24.714;2023-03-16T15:11:53;-24046.81;;;8.23;nan
7105;BME280;3594;42.152;24.714;2023-03-16T15:14:22;-24040.59;;;8.00;nan